Terminal Aerodrome Forecast
Issued by NWS

Home | Current Version | Previous Version | Text Only | Print | Product List | Glossary On
Versions: 1 2 3 4 5 6 7 8 9 10 11 12 13 14 15 16 17 18 19 20 21 22 23 24
000
FTUS41 KLWX 241735
TAFMTN
TAF
KMTN 241735Z 2418/2518 VRB03KT 5SM -SHRA BR OVC008
     FM241900 05004KT 5SM -SHRA BR OVC003
     FM242100 06004KT 5SM -SHRA BR OVC008
     FM250000 05005KT 3SM BR OVC008
     FM250300 06004KT 3SM BR OVC003
     FM250500 08004KT 2SM -SHRA BR OVC003
     FM251200 10005KT 3/4SM -SHRA BR OVC003
     FM251500 16005KT 1SM -SHRA OVC003 WS020/22035KT=

USA.gov is the U.S. government's official web portal to all federal, state and local government web resources and services.